Terminal Aerodrome Forecast
Issued by NWS Wilmington, OH

Home | Current Version | Previous Version | Text Only | Print | Product List | Glossary On
Versions: 1 2 3 4 5 6 7 8 9 10 11 12 13 14 15 16 17 18 19 20 21 22 23 24 25 26 27 28 29 30
911
FTUS41 KILN 180115 AAA
TAFCVG
TAF AMD
KCVG 180115Z 1801/1906 27012G18KT P6SM VCSH OVC012
      TEMPO 1808/1812 OVC008
     FM181300 25008KT P6SM OVC015
     FM190000 20004KT P6SM SCT025=

USA.gov is the U.S. government's official web portal to all federal, state and local government web resources and services.